Have a Safe July 4th! 

Flight Track Log - Related Links

Times and Time Zones

All times are in EDT time to prevent confusion due to time zone crossing. See the SWA1635 flight status page for this flight to view local times or setup timezone preferences in your user account.

Time Position Orientation Groundspeed Altitude Reporting Facility
EDT Latitude Longitude Course Direction KTS MPH feet Rate Location/Type
Tue 10:36:51 AM 36.0744 -115.2364 269° West 188 216 5,100  Level Los Angeles Center
Tue 10:37:53 AM 36.0133 -115.2803 210° Southwest 258 297 6,500 2,141 Climbing Los Angeles Center
Tue 10:39:56 AM 35.8806 -115.2369 165° South 285 328 11,700 2,789 Climbing Los Angeles Center
Tue 10:40:58 AM 35.8803 -115.1253 90° East 325 374 15,100 3,268 Climbing Los Angeles Center
Tue 10:41:00 AM 35.8366 -114.7321 83° East  Level FlightAware Approximate
Tue 10:41:59 AM 35.8742 -115.0058 94° East 342 394 18,400  Level Los Angeles Center
Tue 10:43:01 AM 35.8681 -114.8803 93° East 359 413 21,200 2,758 Climbing Los Angeles Center
Tue 10:44:03 AM 35.8614 -114.7183 93° East 386 444 24,100 2,488 Climbing Los Angeles Center
Tue 10:45:04 AM 35.8456 -114.5767 98° East 408 470 26,300 1,951 Climbing Los Angeles Center
Tue 10:46:06 AM 35.7817 -114.4592 124° Southeast 412 474 28,100 1,742 Climbing Los Angeles Center
Tue 10:47:08 AM 35.7175 -114.3369 123° Southeast 419 482 29,900 1,610 Climbing Los Angeles Center
Tue 10:48:09 AM 35.6425 -114.2011 124° Southeast 438 504 31,400 1,512 Climbing Los Angeles Center
Tue 10:49:11 AM 35.5494 -114.1042 140° Southeast 442 509 33,000 774 Climbing Los Angeles Center
Tue 10:50:13 AM 35.4575 -114.0083 140° Southeast 437 503 33,000  Level Los Angeles Center
Tue 10:51:14 AM 35.3639 -113.9133 140° Southeast 438 504 33,000  Level Los Angeles Center
Tue 10:52:16 AM 35.2703 -113.8125 139° Southeast 446 513 33,000  Level Los Angeles Center
Tue 10:53:18 AM 35.1733 -113.7153 141° Southeast 453 521 33,000  Level Los Angeles Center
Tue 10:54:19 AM 35.0581 -113.5958 140° Southeast 455 524 33,000  Level Los Angeles Center
Tue 10:55:21 AM 34.9628 -113.4983 140° Southeast 453 521 33,000  Level Los Angeles Center
Tue 10:56:23 AM 34.8672 -113.4008 140° Southeast 453 521 33,000  Level Los Angeles Center
Tue 10:56:38 AM 34.8481 -113.3817 141° Southeast 453 521 33,000  Level Albuquerque Center
Tue 10:57:40 AM 34.7536 -113.2844 140° Southeast 451 519 33,000  Level Albuquerque Center
Tue 10:58:42 AM 34.6406 -113.1689 140° Southeast 448 516 33,000  Level Albuquerque Center
Tue 10:59:44 AM 34.5467 -113.0722 140° Southeast 446 513 33,000  Level Albuquerque Center
Tue 11:00:46 AM 34.4511 -112.9781 141° Southeast 445 512 33,000  Level Albuquerque Center
Tue 11:01:47 AM 34.3508 -112.9025 148° Southeast 442 509 33,000  Level Albuquerque Center
Tue 11:02:49 AM 34.2272 -112.8150 150° Southeast 433 498 33,000  Level Albuquerque Center
Tue 11:03:51 AM 34.1228 -112.7439 151° Southeast 433 498 33,000  Level Albuquerque Center
Tue 11:04:53 AM 34.0178 -112.6711 150° Southeast 435 501 33,000  Level Albuquerque Center
Tue 11:05:55 AM 33.9122 -112.5994 151° Southeast 437 503 33,000 -968 Level Albuquerque Center
Tue 11:06:57 AM 33.8064 -112.5264 150° Southeast 440 506 31,000 -968 Descending Albuquerque Center
Tue 11:07:59 AM 33.7039 -112.4569 151° Southeast 429 494 31,000  Level Albuquerque Center
Tue 11:09:01 AM 33.5775 -112.3714 151° Southeast 437 503 31,000 -387 Level Albuquerque Center
Tue 11:10:03 AM 33.4706 -112.2994 151° Southeast 441 507 30,200 -871 Descending Albuquerque Center
Tue 11:11:05 AM 33.3647 -112.2258 150° Southeast 443 510 29,200 -968 Descending Albuquerque Center
Tue 11:12:07 AM 33.2611 -112.1558 151° Southeast 435 501 28,200 -968 Descending Albuquerque Center
Tue 11:13:09 AM 33.1600 -112.0894 151° Southeast 423 487 27,200 -1,065 Descending Albuquerque Center
Tue 11:14:11 AM 33.0419 -112.0117 151° Southeast 409 471 26,000 -1,065 Descending Albuquerque Center
Tue 11:15:13 AM 32.9444 -111.9461 151° Southeast 404 465 25,000 -968 Descending Albuquerque Center
Tue 11:16:15 AM 32.8500 -111.8789 149° Southeast 398 458 24,000 -1,597 Descending Albuquerque Center
Tue 11:17:17 AM 32.7617 -111.8036 144° Southeast 392 451 21,700 -2,177 Descending Albuquerque Center
Tue 11:18:19 AM 32.6767 -111.7333 145° Southeast 376 433 19,500 -2,455 Descending Albuquerque Center
Tue 11:18:45 AM 32.6244 -111.6961 149° Southeast 363 418 18,100 -2,414 Descending Albuquerque Center
Tue 11:19:46 AM 32.5472 -111.6281 143° Southeast 347 399 16,000 -2,082 Descending Albuquerque Center
Tue 11:20:23 AM 32.5164 -111.5744 124° Southeast 347 399 14,700 -2,800 Descending Albuquerque Center
Tue 11:20:46 AM 32.4911 -111.5342 127° Southeast 352 405 13,200 -2,516 Descending Albuquerque Center
Tue 11:21:25 AM 32.4625 -111.4775 121° Southeast 351 404 12,100 -1,701 Descending Albuquerque Center
Tue 11:21:53 AM 32.4333 -111.4336 128° Southeast 344 396 11,300 -1,742 Descending Albuquerque Center
Tue 11:22:27 AM 32.4114 -111.3856 118° Southeast 346 398 10,300 -1,279 Descending Albuquerque Center
Tue 11:22:54 AM 32.3853 -111.3503 131° Southeast 311 358 10,000 -968 Descending Albuquerque Center
Tue 11:23:29 AM 32.3672 -111.3064 116° Southeast 322 371 9,300 -1,600 Descending Albuquerque Center
Tue 11:23:54 AM 32.3403 -111.2717 133° Southeast 278 320 8,400 -1,355 Descending Albuquerque Center
Tue 11:24:31 AM 32.3247 -111.2367 118° Southeast 292 336 7,900 -885 Descending Albuquerque Center
Tue 11:24:55 AM 32.2983 -111.1997 130° Southeast 265 305 7,500 -1,161 Descending Albuquerque Center
Tue 11:25:33 AM 32.2772 -111.1542 119° Southeast 269 310 6,700 -1,164 Descending Albuquerque Center
Tue 11:26:02 AM 32.2567 -111.1278 133° Southeast 249 287 6,200 -1,258 Descending Albuquerque Center
Tue 11:26:35 AM 32.2394 -111.0883 117° Southeast 257 296 5,400 -1,300 Descending Albuquerque Center
Tue 11:27:02 AM 32.2203 -111.0619 131° Southeast 246 283 4,900 -677 Descending Albuquerque Center
Tue 11:27:37 AM 32.2019 -111.0272 122° Southeast 246 283 4,700 -787 Descending Albuquerque Center
Tue 11:28:03 AM 32.1814 -111.0169 157° South 175 201 4,100 -871 Descending Albuquerque Center
Tue 11:28:39 AM 32.1700 -110.9972 124° Southeast 189 217 3,800 -600 Descending Albuquerque Center
Tue 11:29:03 AM 32.1542 -110.9867 151° Southeast 134 154 3,500 -776 Descending Albuquerque Center
Tue 11:30:04 AM 32.1289 -110.9556 134° Southeast 134 154 2,700 -787 Descending Albuquerque Center
Tue 11:32:00 AM 32.1161 -110.9410 128° Southeast  Level Estimated

Login

Don't have an account? Register now (free) for customized features, flight alerts, and more!